Time;durP1;ratioP1;P1;durP2;ratioP2;P2;SDS_P1;SDS_P2;PMS_P1;PMS_P2;Temp;Humidity;BMP_temperature;BMP_pressure;BME280_temperature;BME280_humidity;BME280_pressure;Samples;Min_cycle;Max_cycle;Signal;HPM_P1;HPM_P2
2021/07/01 00:01:57;;;;;;;0.40;0.38;;;15.20;99.90;;;;;;5093970;28;20291;-76
2021/07/01 00:04:25;;;;;;;0.68;0.57;;;15.30;99.90;;;;;;5094351;28;20191;-76
2021/07/01 00:06:52;;;;;;;0.60;0.57;;;15.30;99.90;;;;;;5094264;28;20256;-78
2021/07/01 00:09:21;;;;;;;0.65;0.52;;;15.20;99.90;;;;;;5094022;28;20761;-77
2021/07/01 00:11:50;;;;;;;0.63;0.63;;;15.20;99.90;;;;;;5093751;28;20302;-76
2021/07/01 00:14:19;;;;;;;0.40;0.40;;;15.30;99.90;;;;;;5093930;28;20311;-77
2021/07/01 00:16:46;;;;;;;0.60;0.40;;;15.30;99.90;;;;;;5093563;28;20227;-76
2021/07/01 00:19:13;;;;;;;0.40;0.40;;;15.30;99.90;;;;;;5093785;28;20678;-76
2021/07/01 00:21:40;;;;;;;0.73;0.40;;;15.30;99.90;;;;;;5093857;28;20302;-77
2021/07/01 00:24:07;;;;;;;0.90;0.50;;;15.30;99.90;;;;;;5093456;28;20677;-77
2021/07/01 00:26:34;;;;;;;0.45;0.30;;;15.40;99.90;;;;;;5094012;28;20231;-76
2021/07/01 00:29:01;;;;;;;0.40;0.40;;;15.40;99.90;;;;;;5094170;28;20560;-75
2021/07/01 00:31:30;;;;;;;0.55;0.30;;;15.30;99.90;;;;;;5093344;28;20303;-75
2021/07/01 00:33:57;;;;;;;0.57;0.38;;;15.40;99.90;;;;;;5093610;28;20220;-78
2021/07/01 00:36:24;;;;;;;0.40;0.40;;;15.40;99.90;;;;;;5093469;28;20223;-76
2021/07/01 00:38:52;;;;;;;0.75;0.57;;;15.40;99.90;;;;;;5093436;28;20803;-75
2021/07/01 00:41:19;;;;;;;0.40;0.30;;;15.40;99.90;;;;;;5093203;28;20266;-76
2021/07/01 00:43:46;;;;;;;0.40;0.40;;;15.40;99.90;;;;;;5093162;28;20209;-77
2021/07/01 00:46:14;;;;;;;0.40;0.20;;;15.50;99.90;;;;;;5093481;28;20229;-76
2021/07/01 00:48:42;;;;;;;0.40;0.40;;;15.50;99.90;;;;;;5093480;28;20299;-77
2021/07/01 00:51:09;;;;;;;0.40;0.40;;;15.50;99.90;;;;;;5093114;28;20304;-75
2021/07/01 00:53:36;;;;;;;0.60;0.30;;;15.50;99.90;;;;;;5093297;28;20257;-76
2021/07/01 00:56:05;;;;;;;1.35;0.75;;;15.50;99.90;;;;;;5093183;28;20311;-77
2021/07/01 00:58:32;;;;;;;0.60;0.50;;;15.40;99.90;;;;;;5093435;28;20208;-75
2021/07/01 01:01:02;;;;;;;0.47;0.47;;;15.40;99.90;;;;;;5092886;28;20297;-76
2021/07/01 01:03:30;;;;;;;0.45;0.30;;;15.50;99.90;;;;;;5093156;28;20288;-76
2021/07/01 01:05:58;;;;;;;0.50;0.40;;;15.40;99.90;;;;;;5092982;28;20781;-77
2021/07/01 01:08:25;;;;;;;0.40;0.30;;;15.50;99.90;;;;;;5093146;28;20205;-75
2021/07/01 01:10:52;;;;;;;0.50;0.30;;;15.50;99.90;;;;;;5092678;28;20300;-73
2021/07/01 01:13:25;;;;;;;0.88;0.60;;;15.50;99.90;;;;;;5092678;28;20231;-76
2021/07/01 01:15:52;;;;;;;0.50;0.50;;;15.50;99.90;;;;;;5092701;28;20225;-74
2021/07/01 01:18:20;;;;;;;0.63;0.40;;;15.50;99.90;;;;;;5093519;28;20294;-70
2021/07/01 01:20:47;;;;;;;0.40;0.30;;;15.50;99.90;;;;;;5094529;28;20208;-74
2021/07/01 01:23:16;;;;;;;1.50;0.50;;;15.50;99.90;;;;;;5095129;28;20307;-74
2021/07/01 01:25:44;;;;;;;0.30;0.20;;;15.50;99.90;;;;;;5094408;28;20211;-74
2021/07/01 01:28:11;;;;;;;0.40;0.30;;;15.50;99.90;;;;;;5094567;28;20201;-74
2021/07/01 01:30:39;;;;;;;0.50;0.50;;;15.50;99.90;;;;;;5093741;28;20236;-74
2021/07/01 01:33:07;;;;;;;0.40;0.35;;;15.50;99.90;;;;;;5094642;28;20678;-73
2021/07/01 01:35:34;;;;;;;0.50;0.50;;;15.60;99.90;;;;;;5094726;28;20205;-74
2021/07/01 01:38:01;;;;;;;0.40;0.30;;;15.60;99.90;;;;;;5095208;28;20204;-74
2021/07/01 01:40:29;;;;;;;0.70;0.35;;;15.60;99.90;;;;;;5094639;28;20243;-74
2021/07/01 01:42:56;;;;;;;0.50;0.40;;;15.60;99.90;;;;;;5094779;28;20212;-74
2021/07/01 01:45:23;;;;;;;0.40;0.30;;;15.60;99.90;;;;;;5094925;28;20227;-74
2021/07/01 01:47:51;;;;;;;0.40;0.30;;;15.60;99.90;;;;;;5095275;28;20228;-74
2021/07/01 01:50:19;;;;;;;0.50;0.30;;;15.60;99.90;;;;;;5094282;28;20207;-74
2021/07/01 01:52:46;;;;;;;0.40;0.40;;;15.60;99.90;;;;;;5094447;28;20851;-74
2021/07/01 01:55:13;;;;;;;0.52;0.52;;;15.70;99.90;;;;;;5094229;28;20300;-73
2021/07/01 01:57:44;;;;;;;0.40;0.40;;;15.70;99.90;;;;;;5095214;28;20258;-73
2021/07/01 02:00:13;;;;;;;1.48;0.50;;;15.70;99.90;;;;;;5094302;28;20664;-73
2021/07/01 02:02:41;;;;;;;0.50;0.50;;;15.70;99.90;;;;;;5094864;28;20200;-73
2021/07/01 02:05:09;;;;;;;0.38;0.20;;;15.70;99.90;;;;;;5095234;28;20203;-74
2021/07/01 02:07:37;;;;;;;0.40;0.32;;;15.70;99.90;;;;;;5094393;28;20224;-74
2021/07/01 02:10:06;;;;;;;0.90;0.43;;;15.70;99.90;;;;;;5094659;28;20204;-73
2021/07/01 02:12:33;;;;;;;0.40;0.40;;;15.70;99.90;;;;;;5094628;28;20206;-73
2021/07/01 02:15:03;;;;;;;0.40;0.25;;;15.60;99.90;;;;;;5095191;28;20215;-74
2021/07/01 02:17:30;;;;;;;0.50;0.40;;;15.70;99.90;;;;;;5095110;28;20233;-74
2021/07/01 02:19:57;;;;;;;0.40;0.20;;;15.70;99.90;;;;;;5094447;28;20204;-74
2021/07/01 02:22:23;;;;;;;0.40;0.30;;;15.70;99.90;;;;;;5094907;28;20236;-73
2021/07/01 02:24:50;;;;;;;0.30;0.30;;;15.70;99.90;;;;;;5094765;28;20349;-74
2021/07/01 02:27:17;;;;;;;0.80;0.50;;;15.70;99.90;;;;;;5095206;28;20320;-74
2021/07/01 02:29:44;;;;;;;0.30;0.30;;;15.70;99.90;;;;;;5094068;28;20212;-73
2021/07/01 02:32:12;;;;;;;0.40;0.40;;;15.70;99.90;;;;;;5094497;28;20291;-73
2021/07/01 02:34:41;;;;;;;0.43;0.22;;;15.70;99.90;;;;;;5094462;28;20224;-73
2021/07/01 02:37:08;;;;;;;0.30;0.30;;;15.70;99.90;;;;;;5094887;28;20263;-74
2021/07/01 02:39:35;;;;;;;0.50;0.30;;;15.70;99.90;;;;;;5094591;28;20300;-73
2021/07/01 02:42:02;;;;;;;0.40;0.32;;;15.60;99.90;;;;;;5096432;28;20248;-73
2021/07/01 02:44:29;;;;;;;1.00;0.40;;;15.60;99.90;;;;;;5098583;28;20294;-74
2021/07/01 02:46:56;;;;;;;0.45;0.38;;;15.60;99.90;;;;;;5098335;28;20235;-74
2021/07/01 02:49:24;;;;;;;0.40;0.40;;;15.60;99.90;;;;;;5098670;28;20301;-74
2021/07/01 02:51:53;;;;;;;0.30;0.20;;;15.60;99.90;;;;;;5098300;28;20293;-74
2021/07/01 02:54:20;;;;;;;0.60;0.20;;;15.60;99.90;;;;;;5098860;28;20562;-74
2021/07/01 02:56:47;;;;;;;0.40;0.30;;;15.60;99.90;;;;;;5098477;28;20227;-74
2021/07/01 02:59:16;;;;;;;0.30;0.20;;;15.50;99.90;;;;;;5098216;28;20739;-74
2021/07/01 03:01:43;;;;;;;0.50;0.30;;;15.50;99.90;;;;;;5098056;28;20244;-75
2021/07/01 03:04:09;;;;;;;0.40;0.40;;;15.50;99.90;;;;;;5098359;28;20288;-74
2021/07/01 03:06:38;;;;;;;0.40;0.30;;;15.50;99.90;;;;;;5097284;28;20292;-73
2021/07/01 03:09:06;;;;;;;0.30;0.30;;;15.50;99.90;;;;;;5097430;28;20290;-73
2021/07/01 03:11:33;;;;;;;1.50;0.50;;;15.50;99.90;;;;;;5097509;28;20203;-73
2021/07/01 03:14:00;;;;;;;0.60;0.47;;;15.50;99.90;;;;;;5097472;28;20224;-73
2021/07/01 03:16:27;;;;;;;0.50;0.43;;;15.50;99.90;;;;;;5097396;28;20225;-74
2021/07/01 03:18:54;;;;;;;0.40;0.40;;;15.50;99.90;;;;;;5097310;28;20217;-73
2021/07/01 03:21:22;;;;;;;0.68;0.68;;;15.50;99.90;;;;;;5096882;28;20207;-73
2021/07/01 03:23:51;;;;;;;0.50;0.50;;;15.50;99.90;;;;;;5097668;28;20296;-73
2021/07/01 03:26:19;;;;;;;0.60;0.30;;;15.50;99.90;;;;;;5097876;28;20318;-74
2021/07/01 03:28:46;;;;;;;0.52;0.43;;;15.50;99.90;;;;;;5097730;28;20617;-74
2021/07/01 03:31:13;;;;;;;3.42;2.30;;;15.60;99.90;;;;;;5097417;28;20632;-73
2021/07/01 03:33:40;;;;;;;3.65;2.83;;;15.60;99.90;;;;;;5097380;28;20231;-73
2021/07/01 03:36:08;;;;;;;0.85;0.80;;;15.60;99.90;;;;;;5097330;28;20228;-74
2021/07/01 03:38:36;;;;;;;0.50;0.30;;;15.60;99.90;;;;;;5097311;28;20295;-74
2021/07/01 03:41:04;;;;;;;1.10;0.98;;;15.60;99.90;;;;;;5097215;28;20235;-74
2021/07/01 03:43:31;;;;;;;2.20;1.90;;;15.60;99.90;;;;;;5097267;28;20204;-74
2021/07/01 03:45:58;;;;;;;0.50;0.40;;;15.50;99.90;;;;;;5097172;28;20633;-75
2021/07/01 03:48:25;;;;;;;0.30;0.30;;;15.60;99.90;;;;;;5097663;28;20294;-74
2021/07/01 03:50:52;;;;;;;0.52;0.52;;;15.50;99.90;;;;;;5096948;28;20292;-75
2021/07/01 03:53:19;;;;;;;0.40;0.40;;;15.50;99.90;;;;;;5096791;28;20230;-74
2021/07/01 03:55:46;;;;;;;0.47;0.45;;;15.50;99.90;;;;;;5096793;28;20721;-73
2021/07/01 03:58:14;;;;;;;0.70;0.70;;;15.50;99.90;;;;;;5097301;28;20204;-75
2021/07/01 04:00:41;;;;;;;0.30;0.30;;;15.50;99.90;;;;;;5096886;28;20215;-74
2021/07/01 04:03:07;;;;;;;0.50;0.40;;;15.50;99.90;;;;;;5097066;28;20609;-74
2021/07/01 04:05:34;;;;;;;0.47;0.47;;;15.50;99.90;;;;;;5097480;28;20204;-74
2021/07/01 04:08:01;;;;;;;0.50;0.32;;;15.50;99.90;;;;;;5097176;28;20297;-74
2021/07/01 04:10:28;;;;;;;0.98;0.60;;;15.50;99.90;;;;;;5097130;28;20231;-74
2021/07/01 04:12:55;;;;;;;0.47;0.47;;;15.50;99.90;;;;;;5097738;28;20220;-75
2021/07/01 04:15:23;;;;;;;1.60;1.33;;;15.50;99.90;;;;;;5097106;28;20229;-75
2021/07/01 04:17:50;;;;;;;1.92;1.60;;;15.50;99.90;;;;;;5097116;28;20711;-74
2021/07/01 04:20:18;;;;;;;0.75;0.52;;;15.50;99.90;;;;;;5097007;28;20239;-74
2021/07/01 04:22:45;;;;;;;0.85;0.60;;;15.50;99.90;;;;;;5096592;28;20296;-75
2021/07/01 04:25:13;;;;;;;0.50;0.50;;;15.60;99.90;;;;;;5096882;28;20204;-75
2021/07/01 04:27:40;;;;;;;0.50;0.50;;;15.60;99.90;;;;;;5096983;28;20306;-75
2021/07/01 04:30:08;;;;;;;0.95;0.70;;;15.60;99.90;;;;;;5096833;28;20214;-74
2021/07/01 04:32:37;;;;;;;0.90;0.52;;;15.60;99.90;;;;;;5097299;28;20228;-75
2021/07/01 04:35:04;;;;;;;0.95;0.60;;;15.70;99.90;;;;;;5097165;28;20745;-75
2021/07/01 04:37:31;;;;;;;0.45;0.45;;;15.70;99.90;;;;;;5097035;28;20235;-74
2021/07/01 04:39:58;;;;;;;0.55;0.55;;;15.70;99.90;;;;;;5096543;28;20296;-75
2021/07/01 04:42:25;;;;;;;0.50;0.50;;;15.60;99.90;;;;;;5096726;28;20240;-75
2021/07/01 04:44:52;;;;;;;0.90;0.88;;;15.70;99.90;;;;;;5096455;28;20205;-75
2021/07/01 04:47:19;;;;;;;1.15;0.60;;;15.70;99.90;;;;;;5096119;28;20311;-74
2021/07/01 04:49:48;;;;;;;1.40;1.30;;;15.60;99.90;;;;;;5096474;28;20217;-75
2021/07/01 04:52:14;;;;;;;1.05;0.90;;;15.70;99.90;;;;;;5096535;28;20213;-74
2021/07/01 04:54:42;;;;;;;0.50;0.45;;;15.70;99.90;;;;;;5096623;28;20581;-75
2021/07/01 04:57:08;;;;;;;0.43;0.40;;;15.70;99.90;;;;;;5096542;28;20691;-74
2021/07/01 04:59:35;;;;;;;0.40;0.30;;;15.60;99.90;;;;;;5096851;28;20205;-75
2021/07/01 05:02:02;;;;;;;0.50;0.50;;;15.60;99.90;;;;;;5096470;28;20604;-75
2021/07/01 05:04:29;;;;;;;0.60;0.30;;;15.70;99.90;;;;;;5095300;28;20288;-75
2021/07/01 05:06:57;;;;;;;1.50;0.45;;;15.70;99.90;;;;;;5096327;28;20563;-75
2021/07/01 05:09:24;;;;;;;0.88;0.65;;;15.70;99.90;;;;;;5095925;28;20204;-74
2021/07/01 05:11:51;;;;;;;0.57;0.57;;;15.70;99.90;;;;;;5096004;28;20684;-74
2021/07/01 05:14:18;;;;;;;1.02;0.50;;;15.80;99.90;;;;;;5095503;28;20221;-74
2021/07/01 05:16:44;;;;;;;0.63;0.63;;;15.80;99.90;;;;;;5095861;28;20308;-74
2021/07/01 05:19:11;;;;;;;1.67;1.40;;;15.70;99.90;;;;;;5095931;28;20237;-75
2021/07/01 05:21:38;;;;;;;0.82;0.82;;;15.80;99.90;;;;;;5095655;28;20209;-74
2021/07/01 05:24:07;;;;;;;0.50;0.50;;;15.80;99.90;;;;;;5096046;28;20204;-74
2021/07/01 05:26:34;;;;;;;0.40;0.40;;;15.80;99.90;;;;;;5095520;28;20231;-75
2021/07/01 05:29:00;;;;;;;0.60;0.60;;;15.80;99.90;;;;;;5096023;28;20294;-75
2021/07/01 05:31:27;;;;;;;0.73;0.50;;;15.80;99.90;;;;;;5095229;28;20232;-75
2021/07/01 05:33:56;;;;;;;1.23;0.90;;;15.90;99.90;;;;;;5095335;28;20312;-74
2021/07/01 05:36:23;;;;;;;2.88;2.05;;;15.90;99.90;;;;;;5095068;28;20224;-74
2021/07/01 05:38:50;;;;;;;0.93;0.70;;;15.90;99.90;;;;;;5096639;28;20639;-74
2021/07/01 05:41:18;;;;;;;0.40;0.40;;;15.90;99.90;;;;;;5094834;28;20249;-75
2021/07/01 05:43:45;;;;;;;0.52;0.35;;;16.00;99.90;;;;;;5094577;28;20205;-74
2021/07/01 05:46:12;;;;;;;1.25;0.70;;;16.00;99.90;;;;;;5094533;28;20224;-74
2021/07/01 05:48:39;;;;;;;0.70;0.70;;;15.90;99.90;;;;;;5094062;28;20296;-74
2021/07/01 05:51:07;;;;;;;0.60;0.60;;;15.90;99.90;;;;;;5094118;28;20246;-74
2021/07/01 05:53:39;;;;;;;0.60;0.50;;;16.00;99.90;;;;;;5094270;28;20679;-74
2021/07/01 05:56:06;;;;;;;0.60;0.50;;;16.00;99.90;;;;;;5094388;28;20264;-74
2021/07/01 05:58:34;;;;;;;1.08;0.90;;;16.00;99.90;;;;;;5094004;28;20329;-74
2021/07/01 06:01:01;;;;;;;3.70;2.92;;;16.10;99.90;;;;;;5093687;28;20219;-74
2021/07/01 06:03:28;;;;;;;1.60;1.15;;;16.20;99.90;;;;;;5094079;28;20681;-75
2021/07/01 06:06:01;;;;;;;0.70;0.70;;;16.20;99.90;;;;;;5093915;28;20309;-74
2021/07/01 06:08:29;;;;;;;0.70;0.52;;;16.20;99.90;;;;;;5094832;28;20188;-74
2021/07/01 06:11:02;;;;;;;0.57;0.50;;;16.30;99.90;;;;;;5094015;28;20240;-74
2021/07/01 06:13:30;;;;;;;1.00;0.60;;;16.20;99.90;;;;;;5093546;28;20237;-74
2021/07/01 06:15:59;;;;;;;1.10;0.88;;;16.20;99.90;;;;;;5096782;28;20633;-74
2021/07/01 06:18:25;;;;;;;2.15;0.70;;;16.20;99.90;;;;;;5099050;28;20261;-74
2021/07/01 06:20:52;;;;;;;1.55;0.80;;;16.10;99.90;;;;;;5098187;28;20236;-74
2021/07/01 06:23:19;;;;;;;0.57;0.55;;;16.10;99.90;;;;;;5097634;28;20205;-74
2021/07/01 06:25:48;;;;;;;8.80;5.03;;;16.10;99.90;;;;;;5097566;28;20201;-74
2021/07/01 06:28:15;;;;;;;4.10;1.08;;;16.10;99.90;;;;;;5097623;28;20209;-74
2021/07/01 06:30:45;;;;;;;0.60;0.60;;;16.10;99.90;;;;;;5097356;28;20210;-74
2021/07/01 06:33:14;;;;;;;0.60;0.55;;;16.10;99.90;;;;;;5097719;28;20299;-74
2021/07/01 06:35:46;;;;;;;0.70;0.70;;;16.20;99.90;;;;;;5097797;28;20593;-74
2021/07/01 06:38:15;;;;;;;0.75;0.68;;;16.20;99.90;;;;;;5097613;28;20212;-74
2021/07/01 06:40:45;;;;;;;1.00;0.90;;;16.20;99.90;;;;;;5097112;28;20212;-74
2021/07/01 06:43:14;;;;;;;0.60;0.60;;;16.20;99.90;;;;;;5097661;28;20207;-74
2021/07/01 06:45:41;;;;;;;0.50;0.50;;;16.20;99.90;;;;;;5097583;28;20296;-74
2021/07/01 06:48:10;;;;;;;0.80;0.70;;;16.20;99.90;;;;;;5098224;28;20206;-74
2021/07/01 06:50:40;;;;;;;1.13;0.93;;;16.30;99.90;;;;;;5097060;28;20297;-74
2021/07/01 06:53:07;;;;;;;1.05;0.80;;;16.20;99.90;;;;;;5097076;28;20224;-74
2021/07/01 06:55:35;;;;;;;0.60;0.60;;;16.10;99.90;;;;;;5097286;28;20225;-75
2021/07/01 06:58:02;;;;;;;1.33;0.90;;;16.10;99.90;;;;;;5097503;28;20212;-74
2021/07/01 07:00:29;;;;;;;1.10;1.00;;;16.10;99.90;;;;;;5097168;28;20201;-74
2021/07/01 07:02:56;;;;;;;1.15;0.75;;;16.20;99.90;;;;;;5097430;28;20312;-73
2021/07/01 07:05:23;;;;;;;2.08;1.20;;;16.20;99.90;;;;;;5096714;28;20211;-74
2021/07/01 07:07:51;;;;;;;3.25;1.20;;;16.20;99.90;;;;;;5097069;28;20316;-74
2021/07/01 07:10:20;;;;;;;1.50;1.00;;;16.10;99.90;;;;;;5096671;28;20258;-74
2021/07/01 07:12:49;;;;;;;0.88;0.88;;;16.10;99.90;;;;;;5097068;28;20285;-74
2021/07/01 07:15:23;;;;;;;0.98;0.88;;;16.10;99.90;;;;;;5097229;28;20579;-74
2021/07/01 07:17:51;;;;;;;1.35;1.10;;;16.20;99.90;;;;;;5097015;28;20225;-74
2021/07/01 07:20:22;;;;;;;1.35;1.25;;;16.20;99.90;;;;;;5098069;28;20208;-74
2021/07/01 07:22:51;;;;;;;1.33;1.02;;;16.20;99.90;;;;;;5098455;28;20209;-75
2021/07/01 07:25:18;;;;;;;1.20;0.98;;;16.20;99.90;;;;;;5098363;28;20198;-74
2021/07/01 07:27:55;;;;;;;1.35;0.90;;;16.30;99.90;;;;;;5097663;28;20311;-74
2021/07/01 07:30:25;;;;;;;1.80;1.13;;;16.30;99.90;;;;;;5098105;28;20193;-75
2021/07/01 07:32:52;;;;;;;1.25;1.15;;;16.40;99.90;;;;;;5097704;28;20209;-74
2021/07/01 07:35:20;;;;;;;1.35;1.25;;;16.40;99.90;;;;;;5097633;28;20292;-76
2021/07/01 07:37:47;;;;;;;1.20;0.90;;;16.40;99.90;;;;;;5098793;28;20710;-76
2021/07/01 07:40:16;;;;;;;0.90;0.80;;;16.50;99.90;;;;;;5098893;28;20209;-75
2021/07/01 07:42:44;;;;;;;1.23;1.13;;;16.50;99.90;;;;;;5098122;28;20225;-76
2021/07/01 07:45:12;;;;;;;0.93;0.93;;;16.60;99.90;;;;;;5098262;28;20204;-76
2021/07/01 07:47:39;;;;;;;2.78;1.52;;;16.80;99.90;;;;;;5097271;28;20222;-76
2021/07/01 07:50:09;;;;;;;1.42;0.95;;;16.90;99.90;;;;;;5096691;28;20228;-76
2021/07/01 07:52:39;;;;;;;1.25;1.15;;;17.00;99.90;;;;;;5085917;28;20199;-78
2021/07/01 07:55:08;;;;;;;1.20;1.10;;;17.10;99.90;;;;;;5095892;28;20268;-78
2021/07/01 07:57:37;;;;;;;2.05;1.70;;;17.20;99.90;;;;;;5098330;28;20257;-78
2021/07/01 08:00:04;;;;;;;0.90;0.90;;;17.30;99.90;;;;;;5098040;28;20205;-77
2021/07/01 08:02:45;;;;;;;0.98;0.90;;;17.20;99.90;;;;;;5097972;28;20269;-78
2021/07/01 08:05:15;;;;;;;1.10;1.00;;;17.30;99.90;;;;;;5097871;28;20201;-78
2021/07/01 08:07:42;;;;;;;1.58;1.30;;;17.30;99.90;;;;;;5097598;28;20719;-77
2021/07/01 08:10:11;;;;;;;1.30;1.20;;;17.40;99.90;;;;;;5098206;28;20241;-78
2021/07/01 08:12:42;;;;;;;1.20;1.10;;;17.50;99.90;;;;;;5097561;28;20202;-79
2021/07/01 08:15:12;;;;;;;1.38;1.27;;;17.50;99.90;;;;;;5097180;28;20226;-79
2021/07/01 08:17:42;;;;;;;1.20;0.90;;;17.50;99.90;;;;;;5098237;28;20298;-78
2021/07/01 08:20:10;;;;;;;2.50;1.58;;;17.50;99.90;;;;;;5101077;28;20202;-77
2021/07/01 08:22:40;;;;;;;1.85;1.10;;;17.50;99.90;;;;;;5101347;28;20205;-78
2021/07/01 08:25:08;;;;;;;1.55;1.35;;;17.50;99.90;;;;;;5097131;28;20194;-77
2021/07/01 08:27:34;;;;;;;2.10;1.40;;;17.50;99.90;;;;;;5094944;28;20228;-76
2021/07/01 08:30:04;;;;;;;1.65;1.30;;;17.30;99.90;;;;;;5095846;28;20198;-78
2021/07/01 08:32:32;;;;;;;2.13;1.85;;;17.10;99.90;;;;;;5095532;28;20297;-79
2021/07/01 08:35:00;;;;;;;1.48;1.38;;;17.20;99.90;;;;;;5093907;28;20579;-77
2021/07/01 08:37:29;;;;;;;1.52;1.30;;;17.30;99.90;;;;;;5093608;28;20229;-77
2021/07/01 08:39:59;;;;;;;1.40;1.30;;;17.30;99.90;;;;;;5093783;28;20205;-78
2021/07/01 08:42:33;;;;;;;1.92;1.70;;;17.20;99.90;;;;;;5095512;28;20209;-77
2021/07/01 08:45:05;;;;;;;1.90;1.55;;;17.20;99.90;;;;;;5099062;28;20284;-77
2021/07/01 08:47:35;;;;;;;2.63;1.75;;;17.20;99.90;;;;;;5097159;28;20221;-77
2021/07/01 08:50:04;;;;;;;1.52;1.42;;;17.20;99.90;;;;;;5097238;28;20211;-78
2021/07/01 08:52:33;;;;;;;2.13;1.45;;;17.30;99.90;;;;;;5097574;28;20293;-78
2021/07/01 08:55:02;;;;;;;2.30;1.70;;;17.30;99.90;;;;;;5097769;28;20232;-78
2021/07/01 08:57:31;;;;;;;2.00;1.30;;;17.40;99.90;;;;;;5097597;28;20226;-78
2021/07/01 09:00:02;;;;;;;1.95;1.27;;;17.40;99.90;;;;;;5097277;28;20549;-78
2021/07/01 09:02:36;;;;;;;1.60;1.50;;;17.50;99.90;;;;;;5096669;28;20202;-78
2021/07/01 09:05:13;;;;;;;1.65;1.20;;;17.60;99.90;;;;;;5097476;28;20204;-78
2021/07/01 09:07:41;;;;;;;1.40;1.30;;;17.60;99.90;;;;;;5096740;28;20226;-78
2021/07/01 09:10:12;;;;;;;1.00;1.00;;;17.70;99.90;;;;;;5096846;28;20273;-78
2021/07/01 09:12:43;;;;;;;1.98;1.35;;;17.90;99.90;;;;;;5097399;28;20206;-78
2021/07/01 09:15:11;;;;;;;1.60;1.50;;;18.00;99.90;;;;;;5097895;28;20564;-78
2021/07/01 09:17:47;;;;;;;1.63;1.52;;;18.10;99.90;;;;;;5096776;28;20226;-78
2021/07/01 09:20:19;;;;;;;2.80;1.65;;;18.20;99.90;;;;;;5097793;28;20225;-78
2021/07/01 09:22:46;;;;;;;1.63;1.45;;;18.30;99.90;;;;;;5096581;28;20203;-78
2021/07/01 09:25:14;;;;;;;4.03;1.50;;;18.40;99.90;;;;;;5096063;28;20210;-78
2021/07/01 09:27:44;;;;;;;2.58;1.67;;;18.30;99.90;;;;;;5096753;28;20228;-78
2021/07/01 09:30:12;;;;;;;1.52;1.42;;;18.20;99.90;;;;;;5096403;28;20663;-78
2021/07/01 09:32:41;;;;;;;1.65;1.55;;;18.30;99.90;;;;;;5096879;28;20659;-78
2021/07/01 09:35:11;;;;;;;1.58;1.30;;;18.30;99.90;;;;;;5096811;28;20261;-78
2021/07/01 09:37:41;;;;;;;2.53;1.30;;;18.30;99.90;;;;;;5096395;28;20229;-78
2021/07/01 09:40:09;;;;;;;2.63;1.58;;;18.30;99.90;;;;;;5096502;28;20199;-78
2021/07/01 09:42:36;;;;;;;2.05;1.42;;;18.20;99.90;;;;;;5095948;28;20645;-78
2021/07/01 09:45:06;;;;;;;2.28;1.40;;;18.20;99.90;;;;;;5096390;28;20564;-78
2021/07/01 09:47:37;;;;;;;2.75;1.50;;;18.30;99.90;;;;;;5101119;28;20218;-78
2021/07/01 09:50:07;;;;;;;1.98;1.70;;;18.40;99.90;;;;;;5100226;28;20194;-77
2021/07/01 09:52:38;;;;;;;1.60;1.50;;;18.50;99.90;;;;;;5101212;28;20241;-78
2021/07/01 09:55:06;;;;;;;1.98;1.33;;;18.50;99.90;;;;;;5100381;28;20229;-77
2021/07/01 09:57:38;;;;;;;1.75;1.65;;;18.50;99.90;;;;;;5100807;28;20550;-78
2021/07/01 10:00:08;;;;;;;1.42;1.15;;;18.50;99.90;;;;;;5100037;28;20206;-77
2021/07/01 10:02:35;;;;;;;1.90;1.65;;;18.60;99.90;;;;;;5100577;28;20206;-78
2021/07/01 10:05:04;;;;;;;2.08;1.50;;;18.70;99.90;;;;;;5100228;28;20298;-77
2021/07/01 10:07:32;;;;;;;2.67;2.00;;;18.80;99.90;;;;;;5100288;28;20297;-77
2021/07/01 10:10:12;;;;;;;1.48;1.27;;;18.80;99.90;;;;;;5101331;28;20293;-77
2021/07/01 10:12:50;;;;;;;1.63;1.50;;;18.90;99.90;;;;;;5100753;28;20225;-78
2021/07/01 10:15:26;;;;;;;1.43;1.33;;;19.00;99.90;;;;;;5100739;28;20211;-78
2021/07/01 10:18:05;;;;;;;1.58;1.45;;;18.90;99.90;;;;;;5100631;28;20463;-78
2021/07/01 10:20:34;;;;;;;1.70;1.60;;;18.80;99.90;;;;;;5099947;28;20211;-78
2021/07/01 10:23:03;;;;;;;2.78;1.30;;;18.80;99.90;;;;;;5101564;28;20269;-77
2021/07/01 10:25:31;;;;;;;1.80;1.30;;;18.70;99.90;;;;;;5100527;28;20602;-78
2021/07/01 10:28:10;;;;;;;1.55;1.10;;;18.60;99.90;;;;;;5100349;28;20222;-77
2021/07/01 10:30:37;;;;;;;1.42;1.27;;;18.40;99.90;;;;;;5099512;28;20179;-77
2021/07/01 10:33:05;;;;;;;1.52;1.27;;;18.20;99.90;;;;;;5098862;28;20225;-77
2021/07/01 10:35:34;;;;;;;1.30;1.20;;;18.20;99.90;;;;;;5095431;28;20346;-77
2021/07/01 10:38:08;;;;;;;1.10;1.00;;;18.10;99.90;;;;;;5095233;28;20206;-78
2021/07/01 10:40:38;;;;;;;1.25;1.15;;;18.00;99.90;;;;;;5095490;28;20201;-77
2021/07/01 10:43:06;;;;;;;1.67;1.38;;;18.00;99.90;;;;;;5095163;28;20277;-77
2021/07/01 10:45:34;;;;;;;1.10;1.00;;;18.00;99.90;;;;;;5095903;28;20204;-77
2021/07/01 10:48:18;;;;;;;1.08;1.02;;;17.90;99.90;;;;;;5095455;28;20579;-77
2021/07/01 10:50:46;;;;;;;2.33;1.00;;;18.00;99.90;;;;;;5094508;28;20202;-77
2021/07/01 10:53:30;;;;;;;1.52;1.42;;;17.60;99.90;;;;;;5095161;28;20292;-77
2021/07/01 10:56:00;;;;;;;1.50;1.00;;;17.10;99.90;;;;;;5095259;28;20308;-77
2021/07/01 10:58:29;;;;;;;1.23;1.13;;;16.60;99.90;;;;;;5095432;28;20198;-77
2021/07/01 11:00:57;;;;;;;1.30;1.20;;;16.50;99.90;;;;;;5095617;28;20644;-77
2021/07/01 11:03:26;;;;;;;1.33;1.23;;;16.50;99.90;;;;;;5097614;28;20201;-77
2021/07/01 11:05:53;;;;;;;1.40;1.30;;;16.50;99.90;;;;;;5098348;28;20659;-77
2021/07/01 11:08:32;;;;;;;1.27;1.17;;;16.40;99.90;;;;;;5099218;28;20285;-77
2021/07/01 11:11:01;;;;;;;1.77;1.15;;;16.50;99.90;;;;;;5098049;28;20292;-77
2021/07/01 11:13:30;;;;;;;1.70;1.20;;;16.60;99.90;;;;;;5098500;28;20205;-77
2021/07/01 11:16:05;;;;;;;1.15;1.15;;;16.70;99.90;;;;;;5098162;28;20362;-77
2021/07/01 11:18:35;;;;;;;1.38;1.20;;;16.80;99.90;;;;;;5098855;28;20186;-77
2021/07/01 11:21:09;;;;;;;2.15;1.40;;;17.00;99.90;;;;;;5097916;28;20671;-77
2021/07/01 11:23:39;;;;;;;0.90;0.90;;;17.20;99.90;;;;;;5097822;28;20232;-77
2021/07/01 11:26:28;;;;;;;2.90;1.20;;;17.10;99.90;;;;;;5097990;28;20587;-77
2021/07/01 11:28:56;;;;;;;1.10;0.90;;;17.20;99.90;;;;;;5098282;28;20202;-78
2021/07/01 11:31:41;;;;;;;1.67;1.30;;;17.20;99.90;;;;;;5097657;28;20289;-77
2021/07/01 11:34:09;;;;;;;2.08;1.77;;;17.30;99.90;;;;;;5097827;28;20206;-77
2021/07/01 11:36:37;;;;;;;1.65;1.55;;;17.30;99.90;;;;;;5098103;28;20235;-77
2021/07/01 11:39:08;;;;;;;1.40;1.25;;;17.20;99.90;;;;;;5097900;28;20297;-77
2021/07/01 11:41:36;;;;;;;1.88;1.42;;;17.10;99.90;;;;;;5097413;28;20241;-77
2021/07/01 11:44:04;;;;;;;1.08;0.95;;;17.10;99.90;;;;;;5099221;28;20284;-78
2021/07/01 11:46:31;;;;;;;1.58;1.30;;;17.20;99.90;;;;;;5097589;28;20215;-78
2021/07/01 11:48:58;;;;;;;1.77;1.08;;;17.20;99.90;;;;;;5098044;28;20208;-78
2021/07/01 11:51:27;;;;;;;1.40;1.30;;;17.30;99.90;;;;;;5097722;28;20611;-77
2021/07/01 11:53:54;;;;;;;1.70;1.05;;;17.30;99.90;;;;;;5098322;28;20289;-77
2021/07/01 11:56:24;;;;;;;1.23;1.13;;;17.30;99.90;;;;;;5097281;28;20222;-77
2021/07/01 11:58:51;;;;;;;1.58;1.15;;;17.40;99.90;;;;;;5098544;28;20227;-77
2021/07/01 12:01:18;;;;;;;1.60;1.15;;;17.50;99.90;;;;;;5097502;28;20289;-78
2021/07/01 12:03:48;;;;;;;1.67;1.33;;;17.60;99.90;;;;;;5097474;28;20226;-77
2021/07/01 12:06:27;;;;;;;1.05;0.95;;;17.80;99.90;;;;;;5097626;28;20221;-77
2021/07/01 12:08:54;;;;;;;3.03;1.17;;;17.90;99.90;;;;;;5098289;28;20193;-77
2021/07/01 12:11:21;;;;;;;6.85;4.13;;;17.90;99.90;;;;;;5097588;28;20208;-78
2021/07/01 12:13:49;;;;;;;3.13;2.50;;;18.10;99.90;;;;;;5097165;28;20231;-77
2021/07/01 12:16:18;;;;;;;1.90;1.70;;;18.10;99.90;;;;;;5097763;28;20226;-77
2021/07/01 12:18:56;;;;;;;2.88;1.40;;;18.20;99.90;;;;;;5097748;28;20289;-77
2021/07/01 12:21:28;;;;;;;2.15;1.95;;;18.30;99.90;;;;;;5097308;28;20208;-77
2021/07/01 12:23:58;;;;;;;1.58;1.48;;;18.30;99.90;;;;;;5097081;28;20218;-77
2021/07/01 12:26:35;;;;;;;1.88;1.38;;;18.40;99.90;;;;;;5097411;28;20221;-77
2021/07/01 12:29:07;;;;;;;2.10;1.70;;;18.50;99.90;;;;;;5097047;28;20203;-77
2021/07/01 12:31:36;;;;;;;1.92;1.83;;;18.50;99.90;;;;;;5097573;28;20585;-77
2021/07/01 12:34:04;;;;;;;3.25;2.30;;;18.60;99.90;;;;;;5097030;28;20675;-77
2021/07/01 12:36:32;;;;;;;3.10;2.13;;;18.70;99.90;;;;;;5096865;28;20252;-77
2021/07/01 12:39:26;;;;;;;1.65;1.40;;;18.90;99.90;;;;;;5097738;28;20440;-77
2021/07/01 12:42:18;;;;;;;1.75;1.50;;;19.00;99.90;;;;;;5060735;28;20221;-77
2021/07/01 12:44:47;;;;;;;2.00;1.33;;;19.10;99.90;;;;;;5096869;28;20274;-77
2021/07/01 12:47:16;;;;;;;1.93;1.73;;;19.30;99.90;;;;;;5097754;28;20502;-78
2021/07/01 12:50:04;;;;;;;2.17;1.60;;;19.40;99.90;;;;;;5096765;28;20449;-78
2021/07/01 12:52:41;;;;;;;2.05;1.50;;;19.40;99.90;;;;;;5097029;28;20458;-78
2021/07/01 12:55:10;;;;;;;1.92;1.83;;;19.20;99.90;;;;;;5096549;28;20290;-78
2021/07/01 12:57:37;;;;;;;2.28;1.60;;;19.00;99.90;;;;;;5096366;28;20293;-78